createdAt,value
2018-08-09T00:00:15.532Z,52.70
2018-08-09T00:03:13.491Z,52.70
2018-08-09T00:05:41.501Z,52.60
2018-08-09T00:08:09.563Z,52.30
2018-08-09T00:10:37.540Z,52.50
2018-08-09T00:15:38.679Z,52.80
2018-08-09T00:18:06.662Z,53.00
2018-08-09T00:20:34.819Z,53.20
2018-08-09T00:23:02.762Z,53.20
2018-08-09T00:25:30.795Z,53.30
2018-08-09T00:27:58.767Z,53.60
2018-08-09T00:30:26.721Z,53.50
2018-08-09T00:32:54.703Z,53.20
2018-08-09T00:35:22.675Z,53.30
2018-08-09T00:37:50.644Z,53.40
2018-08-09T00:40:18.596Z,53.40
2018-08-09T00:42:46.526Z,53.40
2018-08-09T00:45:14.507Z,53.70
2018-08-09T00:47:42.452Z,54.00
2018-08-09T00:50:10.435Z,54.10
2018-08-09T00:52:38.380Z,54.30
2018-08-09T00:55:06.603Z,54.20
2018-08-09T00:57:34.554Z,54.00
2018-08-09T01:00:02.491Z,53.80
2018-08-09T01:02:30.620Z,54.20
2018-08-09T01:04:58.571Z,54.60
2018-08-09T01:07:26.524Z,54.80
2018-08-09T01:09:54.485Z,55.30
2018-08-09T01:12:22.455Z,55.50
2018-08-09T01:14:50.454Z,56.40
2018-08-09T01:17:18.425Z,56.30
2018-08-09T01:19:46.411Z,56.30
2018-08-09T01:22:14.363Z,56.20
2018-08-09T01:24:42.311Z,55.90
2018-08-09T01:27:10.281Z,56.60
2018-08-09T01:29:39.718Z,56.80
2018-08-09T01:32:07.703Z,56.80
2018-08-09T01:34:35.643Z,57.00
2018-08-09T01:37:03.644Z,56.90
2018-08-09T01:39:31.627Z,57.00
2018-08-09T01:42:11.226Z,57.90
2018-08-09T01:44:42.468Z,57.40
2018-08-09T01:47:10.479Z,57.30
2018-08-09T01:49:38.448Z,57.30
2018-08-09T01:52:06.492Z,57.20
2018-08-09T01:54:34.478Z,57.10
2018-08-09T01:57:02.447Z,57.20
2018-08-09T01:59:30.433Z,57.70
2018-08-09T02:01:58.388Z,58.00
2018-08-09T02:04:26.363Z,58.00
2018-08-09T02:06:54.325Z,58.20
2018-08-09T02:09:27.912Z,58.40
2018-08-09T02:11:55.892Z,59.20
2018-08-09T02:14:23.852Z,59.70
2018-08-09T02:16:51.911Z,60.00
2018-08-09T02:19:20.100Z,60.50
2018-08-09T02:21:48.081Z,61.00
2018-08-09T02:24:16.040Z,61.20
2018-08-09T02:26:44.012Z,61.60
2018-08-09T02:29:12.291Z,61.90
2018-08-09T02:31:40.315Z,61.80
2018-08-09T02:34:08.318Z,62.40
2018-08-09T02:36:36.509Z,62.20
2018-08-09T02:39:06.622Z,62.60
2018-08-09T02:44:09.318Z,62.20
2018-08-09T02:46:37.372Z,61.80
2018-08-09T02:49:05.291Z,62.40
2018-08-09T02:51:33.266Z,62.70
2018-08-09T02:54:01.272Z,63.10
2018-08-09T02:56:29.247Z,63.20
2018-08-09T02:58:57.430Z,63.40
2018-08-09T03:01:25.394Z,63.50
2018-08-09T03:03:53.357Z,63.50
2018-08-09T03:06:21.314Z,63.40
2018-08-09T03:08:49.277Z,63.30
2018-08-09T03:11:17.221Z,63.60
2018-08-09T03:13:45.203Z,63.90
2018-08-09T03:16:17.094Z,64.20
2018-08-09T03:18:45.162Z,64.80
2018-08-09T03:21:13.159Z,64.50
2018-08-09T03:23:41.132Z,64.90
2018-08-09T03:26:09.187Z,65.00
2018-08-09T03:28:37.487Z,65.60
2018-08-09T03:31:05.493Z,65.80
2018-08-09T03:33:33.464Z,65.80
2018-08-09T03:36:01.512Z,65.80
2018-08-09T03:38:29.482Z,65.60
2018-08-09T03:40:57.472Z,65.20
2018-08-09T03:43:25.437Z,65.80
2018-08-09T03:45:53.441Z,65.90
2018-08-09T03:48:21.752Z,65.90
2018-08-09T03:50:49.734Z,66.50
2018-08-09T03:53:17.708Z,67.20
2018-08-09T03:55:45.756Z,67.30
2018-08-09T03:58:13.746Z,66.80
2018-08-09T04:00:41.681Z,66.60
2018-08-09T04:03:09.886Z,66.70
2018-08-09T04:05:37.886Z,67.00
2018-08-09T04:08:05.892Z,67.20
2018-08-09T04:10:33.852Z,67.30
2018-08-09T04:13:01.832Z,67.40
2018-08-09T04:15:36.291Z,67.70
2018-08-09T04:18:04.264Z,67.50
2018-08-09T04:20:32.228Z,67.50
2018-08-09T04:23:00.234Z,67.60
2018-08-09T04:25:28.212Z,67.50
2018-08-09T04:27:56.431Z,67.40
2018-08-09T04:30:24.376Z,67.10
2018-08-09T04:32:52.330Z,66.90
2018-08-09T04:35:20.323Z,66.70
2018-08-09T04:37:48.293Z,66.90
2018-08-09T04:40:16.499Z,66.80
2018-08-09T04:42:44.461Z,67.00
2018-08-09T04:45:12.416Z,67.70
2018-08-09T04:47:40.399Z,67.60
2018-08-09T04:50:08.891Z,67.60
2018-08-09T04:52:36.835Z,67.50
2018-08-09T04:55:04.820Z,67.20
2018-08-09T04:57:32.788Z,67.10
2018-08-09T05:00:00.756Z,67.10
2018-08-09T05:02:28.901Z,66.90
2018-08-09T05:04:56.850Z,66.70
2018-08-09T05:07:25.077Z,66.40
2018-08-09T05:09:53.058Z,66.00
2018-08-09T05:12:21.027Z,66.20
2018-08-09T05:14:49.059Z,66.10
2018-08-09T05:17:17.029Z,66.00
2018-08-09T05:19:45.066Z,65.80
2018-08-09T05:22:13.030Z,66.40
2018-08-09T05:24:41.003Z,65.50
2018-08-09T05:27:08.995Z,65.00
2018-08-09T05:29:36.955Z,65.70
2018-08-09T05:32:05.300Z,65.40
2018-08-09T05:34:33.232Z,65.30
2018-08-09T05:37:01.279Z,65.50
2018-08-09T05:39:29.487Z,65.60
2018-08-09T05:41:57.468Z,65.20
2018-08-09T05:44:25.421Z,65.70
2018-08-09T05:46:53.644Z,64.90
2018-08-09T05:49:21.687Z,64.70
2018-08-09T05:51:49.632Z,65.20
2018-08-09T05:54:17.584Z,64.00
2018-08-09T05:56:45.656Z,63.80
2018-08-09T05:59:13.670Z,63.40
2018-08-09T06:01:41.752Z,62.90
2018-08-09T06:04:09.789Z,62.90
2018-08-09T06:06:37.966Z,62.70
2018-08-09T06:09:08.135Z,62.80
2018-08-09T06:11:36.126Z,62.80
2018-08-09T06:14:04.210Z,62.50
2018-08-09T06:16:32.294Z,61.70
2018-08-09T06:19:00.243Z,61.40
2018-08-09T06:21:28.198Z,61.30
2018-08-09T06:23:56.138Z,61.40
2018-08-09T06:26:24.569Z,61.30
2018-08-09T06:28:52.480Z,61.60
2018-08-09T06:31:20.483Z,61.60
2018-08-09T06:33:48.463Z,61.60
2018-08-09T06:36:16.416Z,61.60
2018-08-09T06:38:44.362Z,61.90
2018-08-09T06:41:12.660Z,61.80
2018-08-09T06:43:40.633Z,61.80
2018-08-09T06:46:08.587Z,61.70
2018-08-09T06:48:36.592Z,61.70
2018-08-09T06:51:04.611Z,61.60
2018-08-09T06:53:32.556Z,61.60
2018-08-09T06:56:00.594Z,61.40
2018-08-09T06:58:28.609Z,61.30
2018-08-09T07:00:56.551Z,61.60
2018-08-09T07:03:24.556Z,61.60
2018-08-09T07:05:53.528Z,61.50
2018-08-09T07:08:21.502Z,61.30
2018-08-09T07:10:49.444Z,61.30
2018-08-09T07:13:17.415Z,61.10
2018-08-09T07:15:45.415Z,60.80
2018-08-09T07:18:13.379Z,60.80
2018-08-09T07:20:41.344Z,60.50
2018-08-09T07:23:09.372Z,60.40
2018-08-09T07:25:37.352Z,60.30
2018-08-09T07:28:06.730Z,61.00
2018-08-09T07:30:34.680Z,60.50
2018-08-09T07:33:03.047Z,60.60
2018-08-09T07:35:31.035Z,60.60
2018-08-09T07:37:59.057Z,60.80
2018-08-09T07:40:27.021Z,60.90
2018-08-09T07:42:55.067Z,61.10
2018-08-09T07:45:23.084Z,61.50
2018-08-09T07:47:51.150Z,61.30
2018-08-09T07:50:19.113Z,61.20
2018-08-09T07:52:47.108Z,61.30
2018-08-09T07:55:15.107Z,61.60
2018-08-09T07:57:43.132Z,61.40
2018-08-09T08:00:12.092Z,61.70
2018-08-09T08:02:41.176Z,62.00
2018-08-09T08:05:09.369Z,61.80
2018-08-09T08:07:37.926Z,61.90
2018-08-09T08:10:07.158Z,61.80
2018-08-09T08:12:35.132Z,61.90
2018-08-09T08:15:03.241Z,61.80
2018-08-09T08:17:31.107Z,61.90
2018-08-09T08:19:59.112Z,61.80
2018-08-09T08:22:27.154Z,61.90
2018-08-09T08:24:55.143Z,62.10
2018-08-09T08:27:23.224Z,62.10
2018-08-09T08:29:51.270Z,62.10
2018-08-09T08:32:19.275Z,62.30
2018-08-09T08:34:47.351Z,62.00
2018-08-09T08:37:15.304Z,62.00
2018-08-09T08:39:43.378Z,61.90
2018-08-09T08:42:11.399Z,61.90
2018-08-09T08:44:39.433Z,61.80
2018-08-09T08:47:07.610Z,62.00
2018-08-09T08:49:35.564Z,62.00
2018-08-09T08:52:04.179Z,61.90
2018-08-09T08:54:32.537Z,62.00
2018-08-09T08:57:00.606Z,62.10
2018-08-09T08:59:29.502Z,62.10
2018-08-09T09:01:57.582Z,62.00
2018-08-09T09:04:25.705Z,61.80
2018-08-09T09:06:53.576Z,61.70
2018-08-09T09:09:21.890Z,61.80
2018-08-09T09:11:51.170Z,62.00
2018-08-09T09:14:19.150Z,62.20
2018-08-09T09:16:47.221Z,62.00
2018-08-09T09:19:15.280Z,62.20
2018-08-09T09:21:43.232Z,62.60
2018-08-09T09:24:11.200Z,62.70
2018-08-09T09:26:39.207Z,62.60
2018-08-09T09:29:07.183Z,62.40
2018-08-09T09:31:35.168Z,62.10
2018-08-09T09:34:03.108Z,62.10
2018-08-09T09:36:31.125Z,62.50
2018-08-09T09:38:59.118Z,62.50
2018-08-09T09:41:27.202Z,62.40
2018-08-09T09:43:55.178Z,62.50
2018-08-09T09:46:23.611Z,62.70
2018-08-09T09:48:51.640Z,62.50
2018-08-09T09:51:19.608Z,62.40
2018-08-09T09:53:47.895Z,62.50
2018-08-09T09:56:15.840Z,62.10
2018-08-09T09:58:43.830Z,62.30
2018-08-09T10:01:17.399Z,62.20
2018-08-09T10:03:45.477Z,62.30
2018-08-09T10:06:13.426Z,62.20
2018-08-09T10:08:41.495Z,62.30
2018-08-09T10:11:09.455Z,61.90
2018-08-09T10:13:37.502Z,61.60
2018-08-09T10:16:05.468Z,61.90
2018-08-09T10:18:34.613Z,62.00
2018-08-09T10:21:02.591Z,62.20
2018-08-09T10:23:30.547Z,61.70
2018-08-09T10:25:58.882Z,60.60
2018-08-09T10:28:26.849Z,60.40
2018-08-09T10:30:54.946Z,60.20
2018-08-09T10:33:22.987Z,59.90
2018-08-09T10:35:51.066Z,59.80
2018-08-09T10:38:22.584Z,59.80
2018-08-09T10:40:50.531Z,59.90
2018-08-09T10:43:18.580Z,59.80
2018-08-09T10:45:47.349Z,59.70
2018-08-09T10:48:15.339Z,59.80
2018-08-09T10:50:43.594Z,59.80
2018-08-09T10:53:11.540Z,59.70
2018-08-09T10:55:39.678Z,59.50
2018-08-09T10:58:07.646Z,59.50
2018-08-09T11:00:35.622Z,59.50
2018-08-09T11:03:03.611Z,59.50
2018-08-09T11:05:31.583Z,59.00
2018-08-09T11:07:59.543Z,58.70
2018-08-09T11:10:27.524Z,58.50
2018-08-09T11:12:55.507Z,58.60
2018-08-09T11:15:23.537Z,58.70
2018-08-09T11:17:51.896Z,58.80
2018-08-09T11:20:19.859Z,58.60
2018-08-09T11:22:47.808Z,58.40
2018-08-09T11:25:15.835Z,58.30
2018-08-09T11:27:44.176Z,58.20
2018-08-09T11:30:12.142Z,58.20
2018-08-09T11:32:40.218Z,58.30
2018-08-09T11:35:08.217Z,58.00
2018-08-09T11:37:36.157Z,58.10
2018-08-09T11:40:04.632Z,58.10
2018-08-09T11:42:32.640Z,57.90
2018-08-09T11:45:00.610Z,57.80
2018-08-09T11:47:28.633Z,57.70
2018-08-09T11:49:56.607Z,57.60
2018-08-09T11:52:24.583Z,57.20
2018-08-09T11:54:52.816Z,57.10
2018-08-09T11:57:21.129Z,57.00
2018-08-09T11:59:49.152Z,56.80
2018-08-09T12:02:17.121Z,57.10
2018-08-09T12:04:45.105Z,57.10
2018-08-09T12:07:13.402Z,55.60
2018-08-09T12:09:41.519Z,55.30
2018-08-09T12:12:09.672Z,55.40
2018-08-09T12:14:37.628Z,55.20
2018-08-09T12:17:05.769Z,55.20
2018-08-09T12:19:34.307Z,55.30
2018-08-09T12:22:02.275Z,54.60
2018-08-09T12:24:30.276Z,54.10
2018-08-09T12:26:58.255Z,53.40
2018-08-09T12:29:26.251Z,53.30
2018-08-09T12:31:54.260Z,53.80
2018-08-09T12:34:22.227Z,53.40
2018-08-09T12:36:50.579Z,54.30
2018-08-09T12:39:18.549Z,52.70
2018-08-09T12:41:46.566Z,52.90
2018-08-09T12:44:14.798Z,52.80
2018-08-09T12:46:42.765Z,53.10
2018-08-09T12:49:10.751Z,52.90
2018-08-09T12:51:38.817Z,53.00
2018-08-09T12:54:06.887Z,52.90
2018-08-09T12:56:35.179Z,52.60
2018-08-09T12:59:03.127Z,52.50
2018-08-09T13:01:31.146Z,52.50
2018-08-09T13:03:59.167Z,52.30
2018-08-09T13:06:27.155Z,51.80
2018-08-09T13:08:55.931Z,51.70
2018-08-09T13:11:23.945Z,51.40
2018-08-09T13:13:51.897Z,51.20
2018-08-09T13:16:19.902Z,51.00
2018-08-09T13:18:47.856Z,51.00
2018-08-09T13:21:16.466Z,50.70
2018-08-09T13:23:44.575Z,49.60
2018-08-09T13:26:12.606Z,49.60
2018-08-09T13:28:40.662Z,49.50
2018-08-09T13:31:08.731Z,49.30
2018-08-09T13:33:37.186Z,49.20
2018-08-09T13:36:05.251Z,48.40
2018-08-09T13:38:33.204Z,48.50
2018-08-09T13:41:01.275Z,48.20
2018-08-09T13:43:29.278Z,48.50
2018-08-09T13:45:57.270Z,48.10
2018-08-09T13:48:25.285Z,48.30
2018-08-09T13:50:53.329Z,48.20
2018-08-09T13:53:21.402Z,47.90
2018-08-09T13:55:50.544Z,47.60
2018-08-09T13:58:19.928Z,47.20
2018-08-09T14:00:48.252Z,46.80
2018-08-09T14:03:16.231Z,46.80
2018-08-09T14:05:44.811Z,46.80
2018-08-09T14:08:12.808Z,46.30
2018-08-09T14:10:40.839Z,46.10
2018-08-09T14:13:08.803Z,46.00
2018-08-09T14:15:36.788Z,45.40
2018-08-09T14:18:04.936Z,45.20
2018-08-09T14:20:32.900Z,45.40
2018-08-09T14:23:00.971Z,45.20
2018-08-09T14:25:29.027Z,44.80
2018-08-09T14:27:56.981Z,45.30
2018-08-09T14:30:25.149Z,45.00
2018-08-09T14:32:53.142Z,44.50
2018-08-09T14:35:21.087Z,44.40
2018-08-09T14:37:49.354Z,43.90
2018-08-09T14:40:17.323Z,44.00
2018-08-09T14:42:45.848Z,43.90
2018-08-09T14:45:15.230Z,43.70
2018-08-09T14:47:43.395Z,43.90
2018-08-09T14:50:11.463Z,44.00
2018-08-09T14:52:39.468Z,44.00
2018-08-09T14:55:09.386Z,43.80
2018-08-09T14:57:37.369Z,43.40
2018-08-09T15:00:10.854Z,43.40
2018-08-09T15:02:38.797Z,43.50
2018-08-09T15:05:06.792Z,43.80
2018-08-09T15:07:34.774Z,43.50
2018-08-09T15:10:02.727Z,43.40
2018-08-09T15:12:30.684Z,43.40
2018-08-09T15:14:58.683Z,43.50
2018-08-09T15:17:26.677Z,43.20
2018-08-09T15:19:54.637Z,42.90
2018-08-09T15:22:22.691Z,43.20
2018-08-09T15:24:50.664Z,43.80
2018-08-09T15:27:18.669Z,42.50
2018-08-09T15:29:47.149Z,42.60
2018-08-09T15:32:16.103Z,42.50
2018-08-09T15:34:44.056Z,42.40
2018-08-09T15:37:12.033Z,42.30
2018-08-09T15:39:39.971Z,42.20
2018-08-09T15:42:08.348Z,42.20
2018-08-09T15:44:36.298Z,42.40
2018-08-09T15:47:04.309Z,41.90
2018-08-09T15:49:32.354Z,41.80
2018-08-09T15:52:00.434Z,42.00
2018-08-09T15:54:28.514Z,42.20
2018-08-09T15:56:56.470Z,43.10
2018-08-09T15:59:25.475Z,42.20
2018-08-09T16:01:53.516Z,41.80
2018-08-09T16:04:21.524Z,41.70
2018-08-09T16:06:49.517Z,41.60
2018-08-09T16:09:18.011Z,41.50
2018-08-09T16:11:46.308Z,41.40
2018-08-09T16:14:14.349Z,41.50
2018-08-09T16:16:42.303Z,41.50
2018-08-09T16:19:10.543Z,41.30
2018-08-09T16:21:38.496Z,41.30
2018-08-09T16:24:06.738Z,41.00
2018-08-09T16:26:34.806Z,41.10
2018-08-09T16:29:02.908Z,40.80
2018-08-09T16:31:31.164Z,40.90
2018-08-09T16:33:59.156Z,41.00
2018-08-09T16:36:27.191Z,41.20
2018-08-09T16:38:55.180Z,41.70
2018-08-09T16:41:23.128Z,41.80
2018-08-09T16:43:51.423Z,41.90
2018-08-09T16:46:19.482Z,42.20
2018-08-09T16:48:47.409Z,42.30
2018-08-09T16:51:15.383Z,42.50
2018-08-09T16:53:43.461Z,42.60
2018-08-09T16:56:11.524Z,42.30
2018-08-09T16:58:39.484Z,42.30
2018-08-09T17:01:07.519Z,42.10
2018-08-09T17:03:35.549Z,41.70
2018-08-09T17:06:03.583Z,41.50
2018-08-09T17:08:31.826Z,41.50
2018-08-09T17:10:59.800Z,41.30
2018-08-09T17:13:27.823Z,41.40
2018-08-09T17:15:56.605Z,41.40
2018-08-09T17:18:24.581Z,41.40
2018-08-09T17:20:52.545Z,41.40
2018-08-09T17:23:20.575Z,41.50
2018-08-09T17:25:48.536Z,42.20
2018-08-09T17:28:16.523Z,41.80
2018-08-09T17:30:44.494Z,41.90
2018-08-09T17:33:12.512Z,42.20
2018-08-09T17:35:41.410Z,42.10
2018-08-09T17:38:09.407Z,42.00
2018-08-09T17:40:37.451Z,42.10
2018-08-09T17:43:05.754Z,42.00
2018-08-09T17:45:34.779Z,42.20
2018-08-09T17:48:03.195Z,42.30
2018-08-09T17:50:31.225Z,42.30
2018-08-09T17:53:01.141Z,43.20
2018-08-09T17:55:29.469Z,42.80
2018-08-09T17:57:57.470Z,42.90
2018-08-09T18:00:28.700Z,43.10
2018-08-09T18:02:56.685Z,43.20
2018-08-09T18:05:24.638Z,43.40
2018-08-09T18:07:53.362Z,43.40
2018-08-09T18:10:26.219Z,43.50
2018-08-09T18:12:54.405Z,43.70
2018-08-09T18:15:23.495Z,43.80
2018-08-09T18:17:51.843Z,43.80
2018-08-09T18:20:21.383Z,43.80
2018-08-09T18:22:49.412Z,43.80
2018-08-09T18:25:17.498Z,43.50
2018-08-09T18:27:45.442Z,44.20
2018-08-09T18:30:15.400Z,43.50
2018-08-09T18:32:43.527Z,43.40
2018-08-09T18:35:12.867Z,43.30
2018-08-09T18:37:40.916Z,43.10
2018-08-09T18:40:11.708Z,47.70
2018-08-09T18:42:39.967Z,45.00
2018-08-09T18:45:09.079Z,43.90
2018-08-09T18:47:37.645Z,43.90
2018-08-09T18:50:08.632Z,43.40
2018-08-09T18:52:36.637Z,43.50
2018-08-09T18:55:05.177Z,43.50
2018-08-09T18:57:33.209Z,43.70
2018-08-09T19:00:01.176Z,43.80
2018-08-09T19:02:29.672Z,43.90
2018-08-09T19:04:57.652Z,44.00
2018-08-09T19:07:25.659Z,44.00
2018-08-09T19:09:53.890Z,44.20
2018-08-09T19:12:21.891Z,44.20
2018-08-09T19:14:49.874Z,44.20
2018-08-09T19:17:17.844Z,44.30
2018-08-09T19:19:45.856Z,44.30
2018-08-09T19:22:13.822Z,44.40
2018-08-09T19:24:41.773Z,44.30
2018-08-09T19:27:09.889Z,44.40
2018-08-09T19:29:37.948Z,44.30
2018-08-09T19:32:05.938Z,44.40
2018-08-09T19:34:34.302Z,44.40
2018-08-09T19:37:02.339Z,44.50
2018-08-09T19:39:30.298Z,44.60
2018-08-09T19:41:58.526Z,44.80
2018-08-09T19:44:26.485Z,44.90
2018-08-09T19:46:54.513Z,45.00
2018-08-09T19:49:22.586Z,45.10
2018-08-09T19:51:50.597Z,45.20
2018-08-09T19:54:18.580Z,45.20
2018-08-09T19:56:46.620Z,45.20
2018-08-09T19:59:14.686Z,45.20
2018-08-09T20:01:47.508Z,45.70
2018-08-09T20:04:15.679Z,47.60
2018-08-09T20:06:43.712Z,48.90
2018-08-09T20:09:11.843Z,49.60
2018-08-09T20:11:39.908Z,51.00
2018-08-09T20:14:07.998Z,52.20
2018-08-09T20:16:35.998Z,53.50
2018-08-09T20:19:04.063Z,54.20
2018-08-09T20:21:32.532Z,55.20
2018-08-09T20:24:00.505Z,55.60
2018-08-09T20:26:28.508Z,56.30
2018-08-09T20:28:56.499Z,57.90
2018-08-09T20:31:24.535Z,58.30
2018-08-09T20:33:52.531Z,58.60
2018-08-09T20:36:20.551Z,58.90
2018-08-09T20:38:48.534Z,59.60
2018-08-09T20:41:16.715Z,59.70
2018-08-09T20:43:44.668Z,60.30
2018-08-09T20:46:12.699Z,59.90
2018-08-09T20:48:40.830Z,60.00
2018-08-09T20:51:08.800Z,60.40
2018-08-09T20:53:36.988Z,61.60
2018-08-09T20:56:05.229Z,62.20
2018-08-09T20:58:33.245Z,62.10
2018-08-09T21:01:01.226Z,60.50
2018-08-09T21:03:29.511Z,63.10
2018-08-09T21:05:58.620Z,61.60
2018-08-09T21:08:26.632Z,63.60
2018-08-09T21:10:55.555Z,65.80
2018-08-09T21:13:23.667Z,66.80
2018-08-09T21:15:51.628Z,67.20
2018-08-09T21:18:19.627Z,69.60
2018-08-09T21:20:47.724Z,67.50
2018-08-09T21:23:16.447Z,66.60
2018-08-09T21:25:44.457Z,69.40
2018-08-09T21:28:14.437Z,69.10
2018-08-09T21:30:42.571Z,68.30
2018-08-09T21:33:10.575Z,66.50
2018-08-09T21:35:39.164Z,65.80
2018-08-09T21:38:07.126Z,65.80
2018-08-09T21:40:35.086Z,67.70
2018-08-09T21:43:03.052Z,69.70
2018-08-09T21:45:31.043Z,72.00
2018-08-09T21:47:59.052Z,71.10
2018-08-09T21:50:27.003Z,72.20
2018-08-09T21:52:54.958Z,73.00
2018-08-09T21:55:22.922Z,74.90
2018-08-09T21:57:50.911Z,75.00
2018-08-09T22:00:36.296Z,74.50
2018-08-09T22:03:04.624Z,76.30
2018-08-09T22:05:38.137Z,76.90
2018-08-09T22:08:11.615Z,76.50
2018-08-09T22:10:45.063Z,75.70
2018-08-09T22:13:18.594Z,74.90
2018-08-09T22:15:51.923Z,74.20
2018-08-09T22:18:25.320Z,75.80
2018-08-09T22:20:58.760Z,75.60
2018-08-09T22:23:26.721Z,76.00
2018-08-09T22:25:54.707Z,77.30
2018-08-09T22:28:22.709Z,76.50
2018-08-09T22:30:50.687Z,76.50
2018-08-09T22:33:18.656Z,76.10
2018-08-09T22:35:46.641Z,75.80
2018-08-09T22:38:14.627Z,77.60
2018-08-09T22:40:42.644Z,76.00
2018-08-09T22:43:10.863Z,74.70
2018-08-09T22:45:38.831Z,74.40
2018-08-09T22:48:07.351Z,74.80
2018-08-09T22:50:39.276Z,73.80
2018-08-09T22:53:07.319Z,72.70
2018-08-09T22:55:35.806Z,72.30
2018-08-09T22:58:03.883Z,71.60
2018-08-09T23:00:32.111Z,70.90
2018-08-09T23:03:00.120Z,70.50
2018-08-09T23:05:28.106Z,70.70
2018-08-09T23:07:56.058Z,70.40
2018-08-09T23:10:24.035Z,70.30
2018-08-09T23:12:52.341Z,70.10
2018-08-09T23:15:20.955Z,69.40
2018-08-09T23:17:48.967Z,69.20
2018-08-09T23:20:17.002Z,69.70
2018-08-09T23:22:45.287Z,68.20
2018-08-09T23:25:13.931Z,68.40
2018-08-09T23:27:42.695Z,68.70
2018-08-09T23:30:11.500Z,68.50
2018-08-09T23:32:39.475Z,68.80
2018-08-09T23:35:09.492Z,67.90
2018-08-09T23:37:37.439Z,68.30
2018-08-09T23:40:06.648Z,69.00
2018-08-09T23:42:35.969Z,68.40
2018-08-09T23:45:04.408Z,67.20
2018-08-09T23:47:32.347Z,67.30
2018-08-09T23:50:00.570Z,65.70
2018-08-09T23:52:28.515Z,65.70
2018-08-09T23:54:56.466Z,66.10
2018-08-09T23:57:24.482Z,66.00
2018-08-09T23:59:52.444Z,65.60
